sensor_id;sensor_type;location;lat;lon;timestamp;pressure;altitude;pressure_sealevel;temperature;humidity
48563;BME280;34981;49.104;11.396;2022-09-09T00:03:57;95414.09;;;13.68;100.00
48563;BME280;34981;49.104;11.396;2022-09-09T00:06:30;95408.78;;;13.63;100.00
48563;BME280;34981;49.104;11.396;2022-09-09T00:09:00;95408.59;;;13.59;100.00
48563;BME280;34981;49.104;11.396;2022-09-09T00:11:40;95401.28;;;13.60;100.00
48563;BME280;34981;49.104;11.396;2022-09-09T00:14:11;95399.59;;;13.64;100.00
48563;BME280;34981;49.104;11.396;2022-09-09T00:16:40;95394.06;;;13.69;100.00
48563;BME280;34981;49.104;11.396;2022-09-09T00:22:00;95388.69;;;13.69;100.00
48563;BME280;34981;49.104;11.396;2022-09-09T00:24:43;95389.78;;;13.68;100.00
48563;BME280;34981;49.104;11.396;2022-09-09T00:29:50;95383.09;;;13.66;100.00
48563;BME280;34981;49.104;11.396;2022-09-09T00:32:20;95381.38;;;13.70;100.00
48563;BME280;34981;49.104;11.396;2022-09-09T00:37:15;95376.56;;;13.67;100.00
48563;BME280;34981;49.104;11.396;2022-09-09T00:39:44;95385.00;;;13.65;100.00
48563;BME280;34981;49.104;11.396;2022-09-09T00:44:44;95383.69;;;13.62;100.00
48563;BME280;34981;49.104;11.396;2022-09-09T00:52:32;95380.00;;;13.58;100.00
48563;BME280;34981;49.104;11.396;2022-09-09T00:55:16;95380.78;;;13.59;100.00
48563;BME280;34981;49.104;11.396;2022-09-09T00:57:46;95385.09;;;13.60;100.00
48563;BME280;34981;49.104;11.396;2022-09-09T01:00:32;95394.28;;;13.59;100.00
48563;BME280;34981;49.104;11.396;2022-09-09T01:05:49;95396.00;;;13.55;100.00
48563;BME280;34981;49.104;11.396;2022-09-09T01:10:52;95399.28;;;13.52;100.00
48563;BME280;34981;49.104;11.396;2022-09-09T01:13:26;95399.19;;;13.57;100.00
48563;BME280;34981;49.104;11.396;2022-09-09T01:15:59;95394.91;;;13.56;100.00
48563;BME280;34981;49.104;11.396;2022-09-09T01:18:31;95396.00;;;13.55;100.00
48563;BME280;34981;49.104;11.396;2022-09-09T01:21:09;95398.19;;;13.53;100.00
48563;BME280;34981;49.104;11.396;2022-09-09T01:26:30;95400.22;;;13.34;100.00
48563;BME280;34981;49.104;11.396;2022-09-09T01:29:07;95400.22;;;13.34;100.00
48563;BME280;34981;49.104;11.396;2022-09-09T01:31:38;95412.63;;;13.35;100.00
48563;BME280;34981;49.104;11.396;2022-09-09T01:34:16;95408.81;;;13.36;100.00
48563;BME280;34981;49.104;11.396;2022-09-09T01:37:02;95415.31;;;13.35;100.00
48563;BME280;34981;49.104;11.396;2022-09-09T01:39:34;95409.41;;;13.33;100.00
48563;BME280;34981;49.104;11.396;2022-09-09T01:42:08;95405.22;;;13.27;100.00
48563;BME280;34981;49.104;11.396;2022-09-09T01:44:36;95405.59;;;13.20;100.00
48563;BME280;34981;49.104;11.396;2022-09-09T01:47:03;95404.91;;;13.14;100.00
48563;BME280;34981;49.104;11.396;2022-09-09T01:49:31;95407.06;;;13.12;100.00
48563;BME280;34981;49.104;11.396;2022-09-09T01:52:05;95409.78;;;13.12;100.00
48563;BME280;34981;49.104;11.396;2022-09-09T01:54:36;95407.59;;;13.14;100.00
48563;BME280;34981;49.104;11.396;2022-09-09T01:57:19;95407.59;;;13.14;100.00
48563;BME280;34981;49.104;11.396;2022-09-09T02:02:17;95397.94;;;13.08;100.00
48563;BME280;34981;49.104;11.396;2022-09-09T02:05:07;95402.47;;;12.99;100.00
48563;BME280;34981;49.104;11.396;2022-09-09T02:07:48;95400.56;;;13.00;100.00
48563;BME280;34981;49.104;11.396;2022-09-09T02:10:31;95397.53;;;13.01;100.00
48563;BME280;34981;49.104;11.396;2022-09-09T02:13:12;95398.56;;;13.05;100.00
48563;BME280;34981;49.104;11.396;2022-09-09T02:18:24;95399.94;;;13.03;100.00
48563;BME280;34981;49.104;11.396;2022-09-09T02:20:53;95396.97;;;13.04;100.00
48563;BME280;34981;49.104;11.396;2022-09-09T02:23:21;95395.97;;;13.00;100.00
48563;BME280;34981;49.104;11.396;2022-09-09T02:25:51;95398.75;;;12.95;100.00
48563;BME280;34981;49.104;11.396;2022-09-09T02:28:23;95397.47;;;12.93;100.00
48563;BME280;34981;49.104;11.396;2022-09-09T02:30:52;95397.75;;;12.91;100.00
48563;BME280;34981;49.104;11.396;2022-09-09T02:33:30;95390.75;;;12.90;100.00
48563;BME280;34981;49.104;11.396;2022-09-09T02:36:01;95396.94;;;12.91;100.00
48563;BME280;34981;49.104;11.396;2022-09-09T02:38:32;95396.53;;;12.83;100.00
48563;BME280;34981;49.104;11.396;2022-09-09T02:41:08;95387.75;;;12.78;100.00
48563;BME280;34981;49.104;11.396;2022-09-09T02:43:35;95385.13;;;12.73;100.00
48563;BME280;34981;49.104;11.396;2022-09-09T02:48:52;95379.53;;;12.69;100.00
48563;BME280;34981;49.104;11.396;2022-09-09T02:57:04;95379.19;;;12.57;100.00
48563;BME280;34981;49.104;11.396;2022-09-09T02:59:37;95385.69;;;12.56;100.00
48563;BME280;34981;49.104;11.396;2022-09-09T03:02:05;95381.69;;;12.54;100.00
48563;BME280;34981;49.104;11.396;2022-09-09T03:04:33;95377.47;;;12.47;100.00
48563;BME280;34981;49.104;11.396;2022-09-09T03:07:00;95368.78;;;12.51;100.00
48563;BME280;34981;49.104;11.396;2022-09-09T03:09:27;95369.09;;;12.49;100.00
48563;BME280;34981;49.104;11.396;2022-09-09T03:11:56;95366.88;;;12.51;100.00
48563;BME280;34981;49.104;11.396;2022-09-09T03:14:23;95365.00;;;12.52;100.00
48563;BME280;34981;49.104;11.396;2022-09-09T03:16:53;95365.59;;;12.48;100.00
48563;BME280;34981;49.104;11.396;2022-09-09T03:19:21;95362.50;;;12.41;100.00
48563;BME280;34981;49.104;11.396;2022-09-09T03:21:48;95363.75;;;12.30;100.00
48563;BME280;34981;49.104;11.396;2022-09-09T03:24:16;95376.28;;;12.21;100.00
48563;BME280;34981;49.104;11.396;2022-09-09T03:26:43;95370.47;;;12.14;100.00
48563;BME280;34981;49.104;11.396;2022-09-09T03:29:14;95370.47;;;12.14;100.00
48563;BME280;34981;49.104;11.396;2022-09-09T03:31:42;95374.56;;;12.12;100.00
48563;BME280;34981;49.104;11.396;2022-09-09T03:34:10;95375.66;;;12.11;100.00
48563;BME280;34981;49.104;11.396;2022-09-09T03:36:37;95376.72;;;12.09;100.00
48563;BME280;34981;49.104;11.396;2022-09-09T03:39:05;95386.19;;;12.07;100.00
48563;BME280;34981;49.104;11.396;2022-09-09T03:41:32;95395.97;;;12.03;100.00
48563;BME280;34981;49.104;11.396;2022-09-09T03:44:01;95383.44;;;11.93;100.00
48563;BME280;34981;49.104;11.396;2022-09-09T03:46:32;95384.81;;;11.91;100.00
48563;BME280;34981;49.104;11.396;2022-09-09T03:49:00;95377.84;;;11.90;100.00
48563;BME280;34981;49.104;11.396;2022-09-09T03:51:30;95378.66;;;11.90;100.00
48563;BME280;34981;49.104;11.396;2022-09-09T03:53:57;95392.41;;;11.89;100.00
48563;BME280;34981;49.104;11.396;2022-09-09T03:56:26;95380.81;;;11.88;100.00
48563;BME280;34981;49.104;11.396;2022-09-09T03:58:55;95384.81;;;11.91;100.00
48563;BME280;34981;49.104;11.396;2022-09-09T04:01:22;95378.84;;;11.94;100.00
48563;BME280;34981;49.104;11.396;2022-09-09T04:03:49;95377.69;;;12.00;100.00
48563;BME280;34981;49.104;11.396;2022-09-09T04:06:17;95374.94;;;12.05;100.00
48563;BME280;34981;49.104;11.396;2022-09-09T04:08:46;95377.31;;;12.06;100.00
48563;BME280;34981;49.104;11.396;2022-09-09T04:11:16;95376.50;;;12.06;100.00
48563;BME280;34981;49.104;11.396;2022-09-09T04:13:44;95382.94;;;12.10;100.00
48563;BME280;34981;49.104;11.396;2022-09-09T04:16:13;95382.31;;;12.13;100.00
48563;BME280;34981;49.104;11.396;2022-09-09T04:18:42;95375.03;;;12.14;100.00
48563;BME280;34981;49.104;11.396;2022-09-09T04:21:10;95376.44;;;12.11;100.00
48563;BME280;34981;49.104;11.396;2022-09-09T04:23:38;95379.28;;;12.01;100.00
48563;BME280;34981;49.104;11.396;2022-09-09T04:26:06;95377.97;;;11.98;100.00
48563;BME280;34981;49.104;11.396;2022-09-09T04:28:34;95373.69;;;11.97;100.00
48563;BME280;34981;49.104;11.396;2022-09-09T04:31:08;95372.91;;;11.97;100.00
48563;BME280;34981;49.104;11.396;2022-09-09T04:33:38;95370.69;;;11.99;100.00
48563;BME280;34981;49.104;11.396;2022-09-09T04:36:07;95371.81;;;11.98;100.00
48563;BME280;34981;49.104;11.396;2022-09-09T04:38:35;95368.00;;;11.99;100.00
48563;BME280;34981;49.104;11.396;2022-09-09T04:41:04;95363.13;;;12.01;100.00
48563;BME280;34981;49.104;11.396;2022-09-09T04:43:32;95366.25;;;12.08;100.00
48563;BME280;34981;49.104;11.396;2022-09-09T04:46:02;95362.97;;;12.11;100.00
48563;BME280;34981;49.104;11.396;2022-09-09T04:48:29;95359.47;;;12.11;100.00
48563;BME280;34981;49.104;11.396;2022-09-09T04:50:59;95365.16;;;12.09;100.00
48563;BME280;34981;49.104;11.396;2022-09-09T04:53:27;95360.56;;;12.09;100.00
48563;BME280;34981;49.104;11.396;2022-09-09T04:56:08;95364.59;;;12.12;100.00
48563;BME280;34981;49.104;11.396;2022-09-09T04:58:41;95366.97;;;12.14;100.00
48563;BME280;34981;49.104;11.396;2022-09-09T05:01:18;95363.47;;;12.13;100.00
48563;BME280;34981;49.104;11.396;2022-09-09T05:03:47;95372.16;;;12.10;100.00
48563;BME280;34981;49.104;11.396;2022-09-09T05:06:19;95367.56;;;12.11;100.00
48563;BME280;34981;49.104;11.396;2022-09-09T05:08:48;95369.16;;;12.12;100.00
48563;BME280;34981;49.104;11.396;2022-09-09T05:11:21;95376.16;;;12.13;100.00
48563;BME280;34981;49.104;11.396;2022-09-09T05:13:52;95382.94;;;12.10;100.00
48563;BME280;34981;49.104;11.396;2022-09-09T05:16:20;95384.00;;;12.09;100.00
48563;BME280;34981;49.104;11.396;2022-09-09T05:18:48;95385.91;;;12.08;100.00
48563;BME280;34981;49.104;11.396;2022-09-09T05:21:17;95393.19;;;12.08;100.00
48563;BME280;34981;49.104;11.396;2022-09-09T05:23:45;95395.78;;;12.13;100.00
48563;BME280;34981;49.104;11.396;2022-09-09T05:26:13;95399.00;;;12.15;100.00
48563;BME280;34981;49.104;11.396;2022-09-09T05:28:45;95402.78;;;12.14;100.00
48563;BME280;34981;49.104;11.396;2022-09-09T05:31:13;95400.91;;;12.15;100.00
48563;BME280;34981;49.104;11.396;2022-09-09T05:33:42;95409.25;;;12.13;100.00
48563;BME280;34981;49.104;11.396;2022-09-09T05:36:11;95407.97;;;12.11;100.00
48563;BME280;34981;49.104;11.396;2022-09-09T05:38:42;95403.69;;;12.09;100.00
48563;BME280;34981;49.104;11.396;2022-09-09T05:41:10;95404.19;;;12.12;100.00
48563;BME280;34981;49.104;11.396;2022-09-09T05:43:38;95407.69;;;12.12;100.00
48563;BME280;34981;49.104;11.396;2022-09-09T05:46:06;95412.03;;;12.08;100.00
48563;BME280;34981;49.104;11.396;2022-09-09T05:48:35;95417.94;;;12.10;100.00
48563;BME280;34981;49.104;11.396;2022-09-09T05:51:04;95415.69;;;12.17;100.00
48563;BME280;34981;49.104;11.396;2022-09-09T05:53:33;95420.13;;;12.27;100.00
48563;BME280;34981;49.104;11.396;2022-09-09T05:56:02;95429.38;;;12.39;100.00
48563;BME280;34981;49.104;11.396;2022-09-09T05:58:32;95435.81;;;12.57;100.00
48563;BME280;34981;49.104;11.396;2022-09-09T06:01:00;95434.75;;;12.72;100.00
48563;BME280;34981;49.104;11.396;2022-09-09T06:03:28;95432.72;;;12.96;100.00
48563;BME280;34981;49.104;11.396;2022-09-09T06:05:59;95434.28;;;13.16;100.00
48563;BME280;34981;49.104;11.396;2022-09-09T06:08:27;95438.00;;;13.34;100.00
48563;BME280;34981;49.104;11.396;2022-09-09T06:11:00;95435.00;;;13.49;100.00
48563;BME280;34981;49.104;11.396;2022-09-09T06:13:29;95446.22;;;13.56;100.00
48563;BME280;34981;49.104;11.396;2022-09-09T06:15:57;95441.31;;;13.58;100.00
48563;BME280;34981;49.104;11.396;2022-09-09T06:18:25;95446.41;;;13.59;100.00
48563;BME280;34981;49.104;11.396;2022-09-09T06:20:57;95445.00;;;13.62;100.00
48563;BME280;34981;49.104;11.396;2022-09-09T06:23:25;95447.13;;;13.65;100.00
48563;BME280;34981;49.104;11.396;2022-09-09T06:26:00;95439.59;;;13.62;100.00
48563;BME280;34981;49.104;11.396;2022-09-09T06:28:29;95441.00;;;13.59;100.00
48563;BME280;34981;49.104;11.396;2022-09-09T06:31:00;95440.19;;;13.59;100.00
48563;BME280;34981;49.104;11.396;2022-09-09T06:33:31;95431.78;;;13.60;100.00
48563;BME280;34981;49.104;11.396;2022-09-09T06:36:02;95428.00;;;13.61;100.00
48563;BME280;34981;49.104;11.396;2022-09-09T06:38:30;95431.78;;;13.60;100.00
48563;BME280;34981;49.104;11.396;2022-09-09T06:40:58;95439.91;;;13.60;100.00
48563;BME280;34981;49.104;11.396;2022-09-09T06:43:27;95442.59;;;13.60;100.00
48563;BME280;34981;49.104;11.396;2022-09-09T06:46:02;95438.63;;;13.58;100.00
48563;BME280;34981;49.104;11.396;2022-09-09T06:48:31;95441.31;;;13.58;100.00
48563;BME280;34981;49.104;11.396;2022-09-09T06:53:31;95454.59;;;13.54;100.00
48563;BME280;34981;49.104;11.396;2022-09-09T06:56:01;95457.94;;;13.51;100.00
48563;BME280;34981;49.104;11.396;2022-09-09T06:58:29;95453.81;;;13.54;100.00
48563;BME280;34981;49.104;11.396;2022-09-09T07:01:05;95459.72;;;13.56;100.00
48563;BME280;34981;49.104;11.396;2022-09-09T07:03:34;95451.63;;;13.56;100.00
48563;BME280;34981;49.104;11.396;2022-09-09T07:06:01;95457.53;;;13.58;100.00
48563;BME280;34981;49.104;11.396;2022-09-09T07:08:28;95460.69;;;13.60;100.00
48563;BME280;34981;49.104;11.396;2022-09-09T07:11:04;95459.81;;;13.64;100.00
48563;BME280;34981;49.104;11.396;2022-09-09T07:13:38;95447.19;;;13.74;100.00
48563;BME280;34981;49.104;11.396;2022-09-09T07:16:08;95449.19;;;13.82;100.00
48563;BME280;34981;49.104;11.396;2022-09-09T07:18:35;95449.09;;;13.87;100.00
48563;BME280;34981;49.104;11.396;2022-09-09T07:21:03;95477.50;;;13.98;100.00
48563;BME280;34981;49.104;11.396;2022-09-09T07:23:30;95481.59;;;14.09;100.00
48563;BME280;34981;49.104;11.396;2022-09-09T07:26:02;95478.78;;;14.14;100.00
48563;BME280;34981;49.104;11.396;2022-09-09T07:28:30;95487.69;;;14.15;100.00
48563;BME280;34981;49.104;11.396;2022-09-09T07:30:58;95481.19;;;14.16;100.00
48563;BME280;34981;49.104;11.396;2022-09-09T07:33:26;95485.50;;;14.17;100.00
48563;BME280;34981;49.104;11.396;2022-09-09T07:35:53;95485.97;;;14.19;100.00
48563;BME280;34981;49.104;11.396;2022-09-09T07:38:21;95485.50;;;14.17;100.00
48563;BME280;34981;49.104;11.396;2022-09-09T07:40:49;95491.38;;;14.19;100.00
48563;BME280;34981;49.104;11.396;2022-09-09T07:43:16;95484.34;;;14.18;100.00
48563;BME280;34981;49.104;11.396;2022-09-09T07:45:46;95484.97;;;14.15;100.00
48563;BME280;34981;49.104;11.396;2022-09-09T07:48:13;95483.97;;;14.11;100.00
48563;BME280;34981;49.104;11.396;2022-09-09T07:50:41;95489.78;;;14.04;100.00
48563;BME280;34981;49.104;11.396;2022-09-09T07:53:09;95488.81;;;14.00;100.00
48563;BME280;34981;49.104;11.396;2022-09-09T07:55:36;95492.59;;;13.99;100.00
48563;BME280;34981;49.104;11.396;2022-09-09T07:58:03;95488.56;;;14.10;100.00
48563;BME280;34981;49.104;11.396;2022-09-09T08:00:31;95486.72;;;14.33;100.00
48563;BME280;34981;49.104;11.396;2022-09-09T08:03:00;95490.13;;;14.52;100.00
48563;BME280;34981;49.104;11.396;2022-09-09T08:05:29;95491.47;;;14.63;100.00
48563;BME280;34981;49.104;11.396;2022-09-09T08:07:56;95490.09;;;14.66;100.00
48563;BME280;34981;49.104;11.396;2022-09-09T08:10:24;95476.25;;;14.67;100.00
48563;BME280;34981;49.104;11.396;2022-09-09T08:12:53;95476.72;;;14.69;100.00
48563;BME280;34981;49.104;11.396;2022-09-09T08:15:40;95478.34;;;14.70;100.00
48563;BME280;34981;49.104;11.396;2022-09-09T08:18:08;95477.06;;;14.68;100.00
48563;BME280;34981;49.104;11.396;2022-09-09T08:20:37;95490.25;;;14.69;100.00
48563;BME280;34981;49.104;11.396;2022-09-09T08:23:04;95487.50;;;14.61;100.00
48563;BME280;34981;49.104;11.396;2022-09-09T08:25:34;95495.06;;;14.72;100.00
48563;BME280;34981;49.104;11.396;2022-09-09T08:28:01;95492.84;;;14.74;100.00
48563;BME280;34981;49.104;11.396;2022-09-09T08:30:28;95507.22;;;14.84;100.00
48563;BME280;34981;49.104;11.396;2022-09-09T08:32:56;95512.63;;;15.28;100.00
48563;BME280;34981;49.104;11.396;2022-09-09T08:35:24;95520.72;;;15.50;100.00
48563;BME280;34981;49.104;11.396;2022-09-09T08:37:53;95502.47;;;15.56;100.00
48563;BME280;34981;49.104;11.396;2022-09-09T08:40:22;95506.19;;;15.69;100.00
48563;BME280;34981;49.104;11.396;2022-09-09T08:42:54;95516.56;;;15.75;100.00
48563;BME280;34981;49.104;11.396;2022-09-09T08:45:31;95508.47;;;15.84;100.00
48563;BME280;34981;49.104;11.396;2022-09-09T08:48:07;95511.22;;;16.01;100.00
48563;BME280;34981;49.104;11.396;2022-09-09T08:50:37;95514.97;;;16.22;100.00
48563;BME280;34981;49.104;11.396;2022-09-09T08:55:51;95500.97;;;16.55;100.00
48563;BME280;34981;49.104;11.396;2022-09-09T08:58:25;95495.06;;;16.53;100.00
48563;BME280;34981;49.104;11.396;2022-09-09T09:01:10;95501.28;;;16.45;100.00
48563;BME280;34981;49.104;11.396;2022-09-09T09:03:52;95497.63;;;16.49;100.00
48563;BME280;34981;49.104;11.396;2022-09-09T09:11:45;95490.28;;;16.50;100.00
48563;BME280;34981;49.104;11.396;2022-09-09T09:14:19;95491.13;;;16.76;100.00
48563;BME280;34981;49.104;11.396;2022-09-09T09:19:17;95480.88;;;16.99;100.00
48563;BME280;34981;49.104;11.396;2022-09-09T09:21:58;95483.09;;;17.05;100.00
48563;BME280;34981;49.104;11.396;2022-09-09T09:27:15;95480.81;;;17.33;100.00
48563;BME280;34981;49.104;11.396;2022-09-09T09:29:48;95472.03;;;17.36;100.00
48563;BME280;34981;49.104;11.396;2022-09-09T09:32:37;95479.91;;;17.76;100.00
48563;BME280;34981;49.104;11.396;2022-09-09T09:35:11;95481.34;;;17.82;100.00
48563;BME280;34981;49.104;11.396;2022-09-09T09:37:41;95473.63;;;17.84;100.00
48563;BME280;34981;49.104;11.396;2022-09-09T09:40:31;95471.00;;;17.67;100.00
48563;BME280;34981;49.104;11.396;2022-09-09T09:42:59;95468.84;;;17.81;100.00
48563;BME280;34981;49.104;11.396;2022-09-09T09:45:31;95476.50;;;17.87;100.00
48563;BME280;34981;49.104;11.396;2022-09-09T09:48:03;95476.50;;;18.17;100.00
48563;BME280;34981;49.104;11.396;2022-09-09T09:50:35;95477.34;;;18.38;100.00
48563;BME280;34981;49.104;11.396;2022-09-09T09:53:18;95473.53;;;18.51;100.00
48563;BME280;34981;49.104;11.396;2022-09-09T09:58:21;95469.69;;;18.61;100.00
48563;BME280;34981;49.104;11.396;2022-09-09T10:00:52;95468.63;;;18.45;100.00
48563;BME280;34981;49.104;11.396;2022-09-09T10:03:28;95463.97;;;18.75;100.00
48563;BME280;34981;49.104;11.396;2022-09-09T10:05:56;95458.84;;;18.23;100.00
48563;BME280;34981;49.104;11.396;2022-09-09T10:08:24;95462.97;;;18.50;100.00
48563;BME280;34981;49.104;11.396;2022-09-09T10:16:25;95450.59;;;18.82;99.04
48563;BME280;34981;49.104;11.396;2022-09-09T10:31:59;95436.72;;;19.40;92.77
48563;BME280;34981;49.104;11.396;2022-09-09T10:37:02;95433.25;;;19.89;95.50
48563;BME280;34981;49.104;11.396;2022-09-09T10:39:34;95433.81;;;19.82;93.05
48563;BME280;34981;49.104;11.396;2022-09-09T10:42:09;95436.88;;;19.80;92.80
48563;BME280;34981;49.104;11.396;2022-09-09T10:49:46;95429.84;;;19.79;91.11
48563;BME280;34981;49.104;11.396;2022-09-09T10:57:41;95418.09;;;20.28;89.10
48563;BME280;34981;49.104;11.396;2022-09-09T11:00:22;95414.97;;;19.77;87.21
48563;BME280;34981;49.104;11.396;2022-09-09T11:02:56;95418.16;;;19.79;87.98
48563;BME280;34981;49.104;11.396;2022-09-09T11:05:26;95419.06;;;19.71;87.03
48563;BME280;34981;49.104;11.396;2022-09-09T11:10:45;95415.97;;;20.09;86.71
48563;BME280;34981;49.104;11.396;2022-09-09T11:14:53;95403.97;;;20.50;85.72
48563;BME280;34981;49.104;11.396;2022-09-09T11:17:24;95415.97;;;20.61;84.47
48563;BME280;34981;49.104;11.396;2022-09-09T11:19:52;95414.03;;;20.21;83.39
48563;BME280;34981;49.104;11.396;2022-09-09T11:24:49;95413.59;;;20.07;82.61
48563;BME280;34981;49.104;11.396;2022-09-09T11:27:19;95415.41;;;19.91;79.79
48563;BME280;34981;49.104;11.396;2022-09-09T11:29:54;95417.81;;;19.93;78.75
48563;BME280;34981;49.104;11.396;2022-09-09T11:38:02;95407.00;;;19.72;79.04
48563;BME280;34981;49.104;11.396;2022-09-09T11:40:32;95402.22;;;19.69;79.42
48563;BME280;34981;49.104;11.396;2022-09-09T11:45:30;95409.44;;;19.28;78.52
48563;BME280;34981;49.104;11.396;2022-09-09T11:47:59;95414.88;;;19.28;80.56
48563;BME280;34981;49.104;11.396;2022-09-09T11:50:29;95404.88;;;19.32;81.46
48563;BME280;34981;49.104;11.396;2022-09-09T11:53:04;95407.34;;;19.13;81.42
48563;BME280;34981;49.104;11.396;2022-09-09T11:55:33;95393.94;;;19.08;81.90
48563;BME280;34981;49.104;11.396;2022-09-09T12:00:33;95393.38;;;19.15;82.63
48563;BME280;34981;49.104;11.396;2022-09-09T12:03:00;95402.25;;;19.24;83.24
48563;BME280;34981;49.104;11.396;2022-09-09T12:05:44;95405.44;;;19.26;83.56
48563;BME280;34981;49.104;11.396;2022-09-09T12:08:15;95403.22;;;19.07;81.96
48563;BME280;34981;49.104;11.396;2022-09-09T12:10:52;95403.75;;;19.21;84.83
48563;BME280;34981;49.104;11.396;2022-09-09T12:13:20;95400.56;;;19.31;85.65
48563;BME280;34981;49.104;11.396;2022-09-09T12:15:55;95407.63;;;19.44;85.87
48563;BME280;34981;49.104;11.396;2022-09-09T12:18:24;95406.59;;;19.37;82.46
48563;BME280;34981;49.104;11.396;2022-09-09T12:21:04;95398.31;;;19.33;80.59
48563;BME280;34981;49.104;11.396;2022-09-09T12:23:40;95404.63;;;19.70;83.40
48563;BME280;34981;49.104;11.396;2022-09-09T12:34:26;95383.09;;;19.44;83.80
48563;BME280;34981;49.104;11.396;2022-09-09T12:36:58;95375.81;;;19.36;84.85
48563;BME280;34981;49.104;11.396;2022-09-09T12:39:34;95371.22;;;19.49;85.60
48563;BME280;34981;49.104;11.396;2022-09-09T12:42:04;95370.81;;;19.38;85.99
48563;BME280;34981;49.104;11.396;2022-09-09T12:44:31;95367.41;;;19.29;84.45
48563;BME280;34981;49.104;11.396;2022-09-09T12:47:00;95355.50;;;19.46;83.53
48563;BME280;34981;49.104;11.396;2022-09-09T12:49:35;95360.22;;;19.58;80.86
48563;BME280;34981;49.104;11.396;2022-09-09T12:52:09;95353.91;;;19.33;80.48
48563;BME280;34981;49.104;11.396;2022-09-09T12:54:42;95352.22;;;19.53;81.28
48563;BME280;34981;49.104;11.396;2022-09-09T12:57:11;95351.22;;;19.57;79.68
48563;BME280;34981;49.104;11.396;2022-09-09T12:59:40;95355.75;;;19.65;79.02
48563;BME280;34981;49.104;11.396;2022-09-09T13:02:16;95341.00;;;19.78;78.45
48563;BME280;34981;49.104;11.396;2022-09-09T13:04:44;95359.03;;;19.83;77.69
48563;BME280;34981;49.104;11.396;2022-09-09T13:07:13;95346.75;;;19.89;77.88
48563;BME280;34981;49.104;11.396;2022-09-09T13:09:43;95346.28;;;19.87;76.94
48563;BME280;34981;49.104;11.396;2022-09-09T13:12:15;95339.50;;;19.81;75.92
48563;BME280;34981;49.104;11.396;2022-09-09T13:14:44;95331.53;;;19.76;75.24
48563;BME280;34981;49.104;11.396;2022-09-09T13:17:48;95317.22;;;19.91;77.87
48563;BME280;34981;49.104;11.396;2022-09-09T13:20:16;95318.38;;;19.66;77.05
48563;BME280;34981;49.104;11.396;2022-09-09T13:23:20;95318.81;;;19.80;76.82
48563;BME280;34981;49.104;11.396;2022-09-09T13:25:58;95325.28;;;19.75;74.41
48563;BME280;34981;49.104;11.396;2022-09-09T13:28:26;95334.06;;;19.69;75.63
48563;BME280;34981;49.104;11.396;2022-09-09T13:33:36;95334.28;;;19.52;79.26
48563;BME280;34981;49.104;11.396;2022-09-09T13:36:07;95322.03;;;19.58;80.74
48563;BME280;34981;49.104;11.396;2022-09-09T13:38:36;95326.56;;;19.54;79.65
48563;BME280;34981;49.104;11.396;2022-09-09T13:41:05;95323.38;;;19.64;80.45
48563;BME280;34981;49.104;11.396;2022-09-09T13:43:35;95315.75;;;19.33;79.06
48563;BME280;34981;49.104;11.396;2022-09-09T13:46:04;95323.47;;;19.43;80.24
48563;BME280;34981;49.104;11.396;2022-09-09T13:48:33;95323.38;;;19.52;81.55
48563;BME280;34981;49.104;11.396;2022-09-09T13:51:01;95322.00;;;19.70;80.61
48563;BME280;34981;49.104;11.396;2022-09-09T13:53:29;95324.06;;;19.61;77.95
48563;BME280;34981;49.104;11.396;2022-09-09T13:55:57;95332.66;;;19.38;77.01
48563;BME280;34981;49.104;11.396;2022-09-09T13:58:25;95325.75;;;19.41;77.44
48563;BME280;34981;49.104;11.396;2022-09-09T14:00:52;95320.16;;;19.37;77.47
48563;BME280;34981;49.104;11.396;2022-09-09T14:03:20;95311.88;;;19.46;76.34
48563;BME280;34981;49.104;11.396;2022-09-09T14:05:48;95318.97;;;19.47;75.88
48563;BME280;34981;49.104;11.396;2022-09-09T14:08:22;95312.22;;;19.32;75.12
48563;BME280;34981;49.104;11.396;2022-09-09T14:10:51;95304.63;;;19.26;76.01
48563;BME280;34981;49.104;11.396;2022-09-09T14:13:19;95301.28;;;18.96;75.37
48563;BME280;34981;49.104;11.396;2022-09-09T14:15:48;95300.03;;;18.93;76.15
48563;BME280;34981;49.104;11.396;2022-09-09T14:18:15;95310.38;;;18.88;76.26
48563;BME280;34981;49.104;11.396;2022-09-09T14:20:42;95306.81;;;18.75;76.87
48563;BME280;34981;49.104;11.396;2022-09-09T14:23:10;95311.56;;;18.78;77.85
48563;BME280;34981;49.104;11.396;2022-09-09T14:25:39;95307.03;;;18.70;77.85
48563;BME280;34981;49.104;11.396;2022-09-09T14:28:07;95319.81;;;18.57;79.25
48563;BME280;34981;49.104;11.396;2022-09-09T14:30:36;95326.53;;;18.60;80.79
48563;BME280;34981;49.104;11.396;2022-09-09T14:33:03;95315.50;;;18.56;83.03
48563;BME280;34981;49.104;11.396;2022-09-09T14:35:31;95319.00;;;18.57;86.18
48563;BME280;34981;49.104;11.396;2022-09-09T14:37:58;95332.00;;;18.51;89.35
48563;BME280;34981;49.104;11.396;2022-09-09T14:40:25;95322.06;;;18.55;90.31
48563;BME280;34981;49.104;11.396;2022-09-09T14:42:52;95321.13;;;18.51;88.34
48563;BME280;34981;49.104;11.396;2022-09-09T14:45:19;95319.25;;;18.31;84.94
48563;BME280;34981;49.104;11.396;2022-09-09T14:47:49;95320.72;;;18.08;85.02
48563;BME280;34981;49.104;11.396;2022-09-09T14:50:16;95321.69;;;18.24;86.85
48563;BME280;34981;49.104;11.396;2022-09-09T14:52:44;95318.63;;;18.46;89.64
48563;BME280;34981;49.104;11.396;2022-09-09T14:58:15;95322.25;;;18.50;87.67
48563;BME280;34981;49.104;11.396;2022-09-09T15:00:42;95314.50;;;18.61;87.50
48563;BME280;34981;49.104;11.396;2022-09-09T15:03:09;95312.78;;;18.56;86.70